sensor_id;sensor_type;location;lat;lon;timestamp;P1;durP1;ratioP1;P2;durP2;ratioP2
9128;SDS011;4599;50.906;6.786;2023-03-11T00:02:04;9.20;;;1.70;;
9128;SDS011;4599;50.906;6.786;2023-03-11T00:06:09;6.60;;;1.63;;
9128;SDS011;4599;50.906;6.786;2023-03-11T00:10:13;11.43;;;2.30;;
9128;SDS011;4599;50.906;6.786;2023-03-11T00:14:17;11.63;;;2.40;;
9128;SDS011;4599;50.906;6.786;2023-03-11T00:18:19;11.30;;;1.80;;
9128;SDS011;4599;50.906;6.786;2023-03-11T00:22:20;7.60;;;1.93;;
9128;SDS011;4599;50.906;6.786;2023-03-11T00:26:24;12.43;;;1.90;;
9128;SDS011;4599;50.906;6.786;2023-03-11T00:30:26;6.93;;;1.93;;
9128;SDS011;4599;50.906;6.786;2023-03-11T00:34:29;6.80;;;1.80;;
9128;SDS011;4599;50.906;6.786;2023-03-11T00:38:30;10.00;;;1.63;;
9128;SDS011;4599;50.906;6.786;2023-03-11T00:42:33;10.57;;;2.07;;
9128;SDS011;4599;50.906;6.786;2023-03-11T00:46:34;9.53;;;1.97;;
9128;SDS011;4599;50.906;6.786;2023-03-11T00:50:38;13.50;;;1.77;;
9128;SDS011;4599;50.906;6.786;2023-03-11T00:54:40;12.20;;;1.97;;
9128;SDS011;4599;50.906;6.786;2023-03-11T00:58:44;10.83;;;2.13;;
9128;SDS011;4599;50.906;6.786;2023-03-11T01:02:45;9.13;;;1.87;;
9128;SDS011;4599;50.906;6.786;2023-03-11T01:06:48;11.97;;;2.10;;
9128;SDS011;4599;50.906;6.786;2023-03-11T01:10:49;8.60;;;1.80;;
9128;SDS011;4599;50.906;6.786;2023-03-11T01:14:53;6.30;;;1.90;;
9128;SDS011;4599;50.906;6.786;2023-03-11T01:18:54;3.57;;;1.33;;
9128;SDS011;4599;50.906;6.786;2023-03-11T01:22:56;8.60;;;1.97;;
9128;SDS011;4599;50.906;6.786;2023-03-11T01:26:58;7.70;;;2.00;;
9128;SDS011;4599;50.906;6.786;2023-03-11T01:31:01;8.10;;;1.73;;
9128;SDS011;4599;50.906;6.786;2023-03-11T01:35:03;8.53;;;2.30;;
9128;SDS011;4599;50.906;6.786;2023-03-11T01:39:05;5.93;;;1.70;;
9128;SDS011;4599;50.906;6.786;2023-03-11T01:47:49;9.43;;;2.17;;
9128;SDS011;4599;50.906;6.786;2023-03-11T01:51:52;9.23;;;1.57;;
9128;SDS011;4599;50.906;6.786;2023-03-11T01:55:57;7.97;;;1.73;;
9128;SDS011;4599;50.906;6.786;2023-03-11T01:59:59;8.13;;;2.00;;
9128;SDS011;4599;50.906;6.786;2023-03-11T02:04:05;6.27;;;1.70;;
9128;SDS011;4599;50.906;6.786;2023-03-11T02:08:06;6.63;;;1.50;;
9128;SDS011;4599;50.906;6.786;2023-03-11T02:12:08;6.07;;;1.60;;
9128;SDS011;4599;50.906;6.786;2023-03-11T02:16:13;7.57;;;1.80;;
9128;SDS011;4599;50.906;6.786;2023-03-11T02:20:23;13.77;;;1.80;;
9128;SDS011;4599;50.906;6.786;2023-03-11T02:24:34;10.80;;;1.67;;
9128;SDS011;4599;50.906;6.786;2023-03-11T02:28:46;6.27;;;1.27;;
9128;SDS011;4599;50.906;6.786;2023-03-11T02:32:51;6.20;;;1.57;;
9128;SDS011;4599;50.906;6.786;2023-03-11T02:36:55;11.20;;;1.50;;
9128;SDS011;4599;50.906;6.786;2023-03-11T02:40:58;7.70;;;1.33;;
9128;SDS011;4599;50.906;6.786;2023-03-11T02:45:03;8.10;;;1.80;;
9128;SDS011;4599;50.906;6.786;2023-03-11T02:49:08;6.53;;;1.57;;
9128;SDS011;4599;50.906;6.786;2023-03-11T02:53:10;5.63;;;1.70;;
9128;SDS011;4599;50.906;6.786;2023-03-11T02:57:13;4.07;;;1.23;;
9128;SDS011;4599;50.906;6.786;2023-03-11T03:01:21;6.80;;;1.77;;
9128;SDS011;4599;50.906;6.786;2023-03-11T03:05:23;9.57;;;1.80;;
9128;SDS011;4599;50.906;6.786;2023-03-11T03:09:24;6.30;;;1.27;;
9128;SDS011;4599;50.906;6.786;2023-03-11T03:13:26;4.47;;;1.50;;
9128;SDS011;4599;50.906;6.786;2023-03-11T03:17:29;8.53;;;1.67;;
9128;SDS011;4599;50.906;6.786;2023-03-11T03:21:31;5.80;;;1.40;;
9128;SDS011;4599;50.906;6.786;2023-03-11T03:25:32;3.27;;;1.47;;
9128;SDS011;4599;50.906;6.786;2023-03-11T03:29:35;2.97;;;1.43;;
9128;SDS011;4599;50.906;6.786;2023-03-11T03:33:39;8.77;;;1.47;;
9128;SDS011;4599;50.906;6.786;2023-03-11T03:37:41;6.57;;;1.80;;
9128;SDS011;4599;50.906;6.786;2023-03-11T03:41:43;6.67;;;1.67;;
9128;SDS011;4599;50.906;6.786;2023-03-11T03:45:45;7.63;;;1.47;;
9128;SDS011;4599;50.906;6.786;2023-03-11T03:50:00;9.53;;;1.60;;
9128;SDS011;4599;50.906;6.786;2023-03-11T03:54:04;3.73;;;1.13;;
9128;SDS011;4599;50.906;6.786;2023-03-11T03:58:05;4.23;;;1.60;;
9128;SDS011;4599;50.906;6.786;2023-03-11T04:02:07;5.37;;;1.30;;
9128;SDS011;4599;50.906;6.786;2023-03-11T04:06:14;5.97;;;1.87;;
9128;SDS011;4599;50.906;6.786;2023-03-11T04:10:17;11.83;;;1.30;;
9128;SDS011;4599;50.906;6.786;2023-03-11T04:14:19;6.90;;;1.73;;
9128;SDS011;4599;50.906;6.786;2023-03-11T04:18:22;5.40;;;1.97;;
9128;SDS011;4599;50.906;6.786;2023-03-11T04:22:26;4.93;;;1.33;;
9128;SDS011;4599;50.906;6.786;2023-03-11T04:26:28;7.37;;;1.97;;
9128;SDS011;4599;50.906;6.786;2023-03-11T04:30:30;5.30;;;1.67;;
9128;SDS011;4599;50.906;6.786;2023-03-11T04:34:33;12.03;;;1.90;;
9128;SDS011;4599;50.906;6.786;2023-03-11T04:38:36;8.97;;;1.80;;
9128;SDS011;4599;50.906;6.786;2023-03-11T04:42:38;9.23;;;1.53;;
9128;SDS011;4599;50.906;6.786;2023-03-11T04:46:40;8.00;;;1.63;;
9128;SDS011;4599;50.906;6.786;2023-03-11T04:50:42;5.87;;;1.43;;
9128;SDS011;4599;50.906;6.786;2023-03-11T04:54:47;4.87;;;1.43;;
9128;SDS011;4599;50.906;6.786;2023-03-11T04:58:48;7.57;;;1.63;;
9128;SDS011;4599;50.906;6.786;2023-03-11T05:02:50;8.30;;;1.80;;
9128;SDS011;4599;50.906;6.786;2023-03-11T05:06:54;12.33;;;1.97;;
9128;SDS011;4599;50.906;6.786;2023-03-11T05:10:58;4.07;;;1.90;;
9128;SDS011;4599;50.906;6.786;2023-03-11T05:14:59;7.90;;;1.70;;
9128;SDS011;4599;50.906;6.786;2023-03-11T05:19:01;9.80;;;1.60;;
9128;SDS011;4599;50.906;6.786;2023-03-11T05:23:03;12.37;;;1.73;;
9128;SDS011;4599;50.906;6.786;2023-03-11T05:27:06;4.40;;;1.60;;
9128;SDS011;4599;50.906;6.786;2023-03-11T05:31:08;5.33;;;1.57;;
9128;SDS011;4599;50.906;6.786;2023-03-11T05:35:10;7.20;;;1.60;;
9128;SDS011;4599;50.906;6.786;2023-03-11T05:39:12;10.40;;;2.23;;
9128;SDS011;4599;50.906;6.786;2023-03-11T05:43:16;5.80;;;1.77;;
9128;SDS011;4599;50.906;6.786;2023-03-11T05:47:17;7.37;;;1.87;;
9128;SDS011;4599;50.906;6.786;2023-03-11T05:51:19;8.57;;;2.33;;
9128;SDS011;4599;50.906;6.786;2023-03-11T05:55:21;6.37;;;2.07;;
9128;SDS011;4599;50.906;6.786;2023-03-11T05:59:24;7.27;;;1.93;;
9128;SDS011;4599;50.906;6.786;2023-03-11T06:03:26;11.30;;;2.53;;
9128;SDS011;4599;50.906;6.786;2023-03-11T06:07:27;9.57;;;2.40;;
9128;SDS011;4599;50.906;6.786;2023-03-11T06:11:29;9.93;;;2.70;;
9128;SDS011;4599;50.906;6.786;2023-03-11T06:15:32;7.87;;;2.20;;
9128;SDS011;4599;50.906;6.786;2023-03-11T06:19:37;7.73;;;2.10;;
9128;SDS011;4599;50.906;6.786;2023-03-11T06:23:39;12.70;;;2.50;;
9128;SDS011;4599;50.906;6.786;2023-03-11T06:27:40;6.43;;;2.13;;
9128;SDS011;4599;50.906;6.786;2023-03-11T06:31:43;7.23;;;2.33;;
9128;SDS011;4599;50.906;6.786;2023-03-11T06:35:54;5.13;;;2.00;;
9128;SDS011;4599;50.906;6.786;2023-03-11T06:39:56;22.03;;;2.40;;
9128;SDS011;4599;50.906;6.786;2023-03-11T06:43:58;7.80;;;2.37;;
9128;SDS011;4599;50.906;6.786;2023-03-11T06:48:01;7.87;;;2.43;;
9128;SDS011;4599;50.906;6.786;2023-03-11T06:52:03;6.50;;;2.10;;
9128;SDS011;4599;50.906;6.786;2023-03-11T06:56:05;8.63;;;2.20;;
9128;SDS011;4599;50.906;6.786;2023-03-11T07:00:09;7.07;;;2.30;;
9128;SDS011;4599;50.906;6.786;2023-03-11T07:04:13;7.47;;;2.60;;
9128;SDS011;4599;50.906;6.786;2023-03-11T07:08:14;7.00;;;2.70;;
9128;SDS011;4599;50.906;6.786;2023-03-11T07:12:16;6.53;;;2.40;;
9128;SDS011;4599;50.906;6.786;2023-03-11T07:16:21;9.83;;;2.97;;
9128;SDS011;4599;50.906;6.786;2023-03-11T07:20:26;8.83;;;2.40;;
9128;SDS011;4599;50.906;6.786;2023-03-11T07:24:27;6.67;;;2.33;;
9128;SDS011;4599;50.906;6.786;2023-03-11T07:28:29;6.40;;;2.07;;
9128;SDS011;4599;50.906;6.786;2023-03-11T07:32:31;11.20;;;2.43;;
9128;SDS011;4599;50.906;6.786;2023-03-11T07:36:34;9.07;;;2.20;;
9128;SDS011;4599;50.906;6.786;2023-03-11T07:40:35;10.53;;;2.83;;
9128;SDS011;4599;50.906;6.786;2023-03-11T07:44:38;7.70;;;2.00;;
9128;SDS011;4599;50.906;6.786;2023-03-11T07:48:39;7.93;;;2.40;;
9128;SDS011;4599;50.906;6.786;2023-03-11T07:52:43;6.00;;;2.53;;
9128;SDS011;4599;50.906;6.786;2023-03-11T07:56:45;6.43;;;2.23;;
9128;SDS011;4599;50.906;6.786;2023-03-11T08:00:48;7.83;;;2.53;;
9128;SDS011;4599;50.906;6.786;2023-03-11T08:04:51;11.43;;;2.57;;
9128;SDS011;4599;50.906;6.786;2023-03-11T08:08:54;7.23;;;2.47;;
9128;SDS011;4599;50.906;6.786;2023-03-11T08:12:56;9.60;;;2.30;;
9128;SDS011;4599;50.906;6.786;2023-03-11T08:16:57;5.40;;;2.03;;
9128;SDS011;4599;50.906;6.786;2023-03-11T08:21:02;7.37;;;2.23;;
9128;SDS011;4599;50.906;6.786;2023-03-11T08:25:06;7.93;;;2.40;;
9128;SDS011;4599;50.906;6.786;2023-03-11T08:29:08;7.10;;;2.27;;
9128;SDS011;4599;50.906;6.786;2023-03-11T08:33:10;7.97;;;2.57;;
9128;SDS011;4599;50.906;6.786;2023-03-11T08:37:13;6.23;;;2.03;;
9128;SDS011;4599;50.906;6.786;2023-03-11T08:41:16;5.77;;;2.20;;
9128;SDS011;4599;50.906;6.786;2023-03-11T08:45:18;9.37;;;2.10;;
9128;SDS011;4599;50.906;6.786;2023-03-11T08:49:20;4.77;;;2.27;;
9128;SDS011;4599;50.906;6.786;2023-03-11T08:53:23;5.03;;;1.90;;
9128;SDS011;4599;50.906;6.786;2023-03-11T08:57:28;6.60;;;2.50;;
9128;SDS011;4599;50.906;6.786;2023-03-11T09:01:29;4.40;;;2.10;;
9128;SDS011;4599;50.906;6.786;2023-03-11T09:05:31;5.70;;;2.10;;
9128;SDS011;4599;50.906;6.786;2023-03-11T09:09:33;6.00;;;2.60;;
9128;SDS011;4599;50.906;6.786;2023-03-11T09:13:36;9.77;;;2.20;;
9128;SDS011;4599;50.906;6.786;2023-03-11T09:17:37;16.73;;;1.70;;
9128;SDS011;4599;50.906;6.786;2023-03-11T09:21:40;3.90;;;1.63;;
9128;SDS011;4599;50.906;6.786;2023-03-11T09:25:41;4.60;;;1.80;;
9128;SDS011;4599;50.906;6.786;2023-03-11T09:29:47;8.27;;;2.00;;
9128;SDS011;4599;50.906;6.786;2023-03-11T09:33:49;5.50;;;1.00;;
9128;SDS011;4599;50.906;6.786;2023-03-11T09:37:52;3.90;;;1.33;;
9128;SDS011;4599;50.906;6.786;2023-03-11T09:41:55;3.57;;;1.20;;
9128;SDS011;4599;50.906;6.786;2023-03-11T09:46:02;2.87;;;1.30;;
9128;SDS011;4599;50.906;6.786;2023-03-11T09:50:19;4.57;;;1.30;;
9128;SDS011;4599;50.906;6.786;2023-03-11T09:54:28;3.07;;;1.40;;
9128;SDS011;4599;50.906;6.786;2023-03-11T09:58:36;3.07;;;1.40;;
9128;SDS011;4599;50.906;6.786;2023-03-11T10:02:42;2.23;;;1.10;;
9128;SDS011;4599;50.906;6.786;2023-03-11T10:06:44;5.43;;;0.97;;
9128;SDS011;4599;50.906;6.786;2023-03-11T10:10:48;2.47;;;0.93;;
9128;SDS011;4599;50.906;6.786;2023-03-11T10:14:59;2.13;;;0.97;;
9128;SDS011;4599;50.906;6.786;2023-03-11T10:19:14;1.93;;;1.00;;
9128;SDS011;4599;50.906;6.786;2023-03-11T10:23:24;2.40;;;1.20;;
9128;SDS011;4599;50.906;6.786;2023-03-11T10:27:36;3.13;;;1.33;;
9128;SDS011;4599;50.906;6.786;2023-03-11T10:31:44;3.80;;;1.60;;
9128;SDS011;4599;50.906;6.786;2023-03-11T10:35:52;3.93;;;1.03;;
9128;SDS011;4599;50.906;6.786;2023-03-11T10:39:57;1.93;;;1.27;;
9128;SDS011;4599;50.906;6.786;2023-03-11T10:44:06;4.53;;;1.30;;
9128;SDS011;4599;50.906;6.786;2023-03-11T10:48:14;6.97;;;1.90;;
9128;SDS011;4599;50.906;6.786;2023-03-11T10:52:21;5.07;;;1.50;;
9128;SDS011;4599;50.906;6.786;2023-03-11T10:56:24;2.60;;;1.10;;
9128;SDS011;4599;50.906;6.786;2023-03-11T11:00:28;2.17;;;1.30;;
9128;SDS011;4599;50.906;6.786;2023-03-11T11:04:33;2.63;;;1.10;;
9128;SDS011;4599;50.906;6.786;2023-03-11T11:08:38;5.57;;;1.17;;
9128;SDS011;4599;50.906;6.786;2023-03-11T11:12:50;1.60;;;1.03;;
9128;SDS011;4599;50.906;6.786;2023-03-11T11:16:52;5.27;;;1.80;;
9128;SDS011;4599;50.906;6.786;2023-03-11T11:20:56;3.83;;;1.23;;
9128;SDS011;4599;50.906;6.786;2023-03-11T11:25:02;2.73;;;0.90;;
9128;SDS011;4599;50.906;6.786;2023-03-11T11:29:24;3.63;;;1.17;;
9128;SDS011;4599;50.906;6.786;2023-03-11T11:33:26;3.17;;;1.30;;
9128;SDS011;4599;50.906;6.786;2023-03-11T11:37:30;3.73;;;1.17;;
9128;SDS011;4599;50.906;6.786;2023-03-11T11:41:37;2.73;;;0.90;;
9128;SDS011;4599;50.906;6.786;2023-03-11T11:45:39;3.83;;;1.30;;
9128;SDS011;4599;50.906;6.786;2023-03-11T11:49:45;4.80;;;1.40;;
9128;SDS011;4599;50.906;6.786;2023-03-11T11:53:54;4.77;;;1.30;;
9128;SDS011;4599;50.906;6.786;2023-03-11T11:58:01;2.47;;;1.07;;
9128;SDS011;4599;50.906;6.786;2023-03-11T12:02:05;2.17;;;1.00;;
9128;SDS011;4599;50.906;6.786;2023-03-11T12:06:14;2.20;;;1.13;;
9128;SDS011;4599;50.906;6.786;2023-03-11T12:10:22;2.57;;;1.23;;
9128;SDS011;4599;50.906;6.786;2023-03-11T12:14:31;2.27;;;1.00;;
9128;SDS011;4599;50.906;6.786;2023-03-11T12:18:41;3.87;;;1.33;;
9128;SDS011;4599;50.906;6.786;2023-03-11T12:22:52;4.47;;;1.40;;
9128;SDS011;4599;50.906;6.786;2023-03-11T13:30:49;2.47;;;1.40;;
9128;SDS011;4599;50.906;6.786;2023-03-11T13:34:59;2.47;;;1.13;;
9128;SDS011;4599;50.906;6.786;2023-03-11T13:39:16;3.57;;;1.20;;
9128;SDS011;4599;50.906;6.786;2023-03-11T13:43:26;2.33;;;1.27;;
9128;SDS011;4599;50.906;6.786;2023-03-11T13:47:29;3.80;;;1.30;;
9128;SDS011;4599;50.906;6.786;2023-03-11T13:51:34;5.10;;;1.60;;
9128;SDS011;4599;50.906;6.786;2023-03-11T13:55:40;3.03;;;1.40;;
9128;SDS011;4599;50.906;6.786;2023-03-11T13:59:44;4.10;;;1.30;;
9128;SDS011;4599;50.906;6.786;2023-03-11T14:03:53;5.23;;;1.40;;
9128;SDS011;4599;50.906;6.786;2023-03-11T14:07:57;4.40;;;1.70;;
9128;SDS011;4599;50.906;6.786;2023-03-11T14:12:11;4.00;;;1.20;;
9128;SDS011;4599;50.906;6.786;2023-03-11T14:16:18;2.90;;;1.30;;
9128;SDS011;4599;50.906;6.786;2023-03-11T14:20:24;9.47;;;1.30;;
9128;SDS011;4599;50.906;6.786;2023-03-11T14:24:27;5.23;;;1.47;;
9128;SDS011;4599;50.906;6.786;2023-03-11T14:28:32;4.33;;;1.23;;
9128;SDS011;4599;50.906;6.786;2023-03-11T14:32:36;5.17;;;1.60;;
9128;SDS011;4599;50.906;6.786;2023-03-11T14:36:42;3.07;;;1.43;;
9128;SDS011;4599;50.906;6.786;2023-03-11T14:40:45;2.93;;;1.10;;
9128;SDS011;4599;50.906;6.786;2023-03-11T14:44:56;3.77;;;1.27;;
9128;SDS011;4599;50.906;6.786;2023-03-11T14:49:02;7.07;;;1.30;;
9128;SDS011;4599;50.906;6.786;2023-03-11T14:53:11;2.67;;;1.17;;
9128;SDS011;4599;50.906;6.786;2023-03-11T14:57:17;3.87;;;1.50;;
9128;SDS011;4599;50.906;6.786;2023-03-11T15:01:23;2.30;;;1.30;;
9128;SDS011;4599;50.906;6.786;2023-03-11T15:05:31;9.13;;;1.60;;
9128;SDS011;4599;50.906;6.786;2023-03-11T15:09:39;1.60;;;1.13;;
9128;SDS011;4599;50.906;6.786;2023-03-11T15:13:42;4.07;;;1.50;;
9128;SDS011;4599;50.906;6.786;2023-03-11T15:17:50;2.60;;;1.40;;
9128;SDS011;4599;50.906;6.786;2023-03-11T15:21:54;1.90;;;1.20;;
9128;SDS011;4599;50.906;6.786;2023-03-11T15:25:59;3.93;;;1.40;;
9128;SDS011;4599;50.906;6.786;2023-03-11T15:30:01;4.73;;;1.50;;
9128;SDS011;4599;50.906;6.786;2023-03-11T15:34:09;3.30;;;1.20;;
9128;SDS011;4599;50.906;6.786;2023-03-11T15:38:22;5.50;;;1.30;;
9128;SDS011;4599;50.906;6.786;2023-03-11T15:42:26;7.73;;;1.53;;
9128;SDS011;4599;50.906;6.786;2023-03-11T15:46:28;3.87;;;1.43;;
9128;SDS011;4599;50.906;6.786;2023-03-11T15:50:30;3.10;;;1.30;;
9128;SDS011;4599;50.906;6.786;2023-03-11T15:54:52;5.90;;;1.30;;
9128;SDS011;4599;50.906;6.786;2023-03-11T15:58:59;4.00;;;1.43;;
9128;SDS011;4599;50.906;6.786;2023-03-11T16:03:00;4.40;;;1.40;;
9128;SDS011;4599;50.906;6.786;2023-03-11T16:09:19;6.97;;;1.50;;
9128;SDS011;4599;50.906;6.786;2023-03-11T16:13:21;7.83;;;1.30;;
9128;SDS011;4599;50.906;6.786;2023-03-11T16:17:22;3.70;;;1.10;;
9128;SDS011;4599;50.906;6.786;2023-03-11T16:21:26;2.87;;;1.40;;
9128;SDS011;4599;50.906;6.786;2023-03-11T16:25:35;6.83;;;1.53;;
9128;SDS011;4599;50.906;6.786;2023-03-11T16:29:38;5.03;;;1.67;;
9128;SDS011;4599;50.906;6.786;2023-03-11T16:33:40;5.43;;;1.27;;
9128;SDS011;4599;50.906;6.786;2023-03-11T16:37:42;3.70;;;1.20;;
9128;SDS011;4599;50.906;6.786;2023-03-11T16:41:45;4.07;;;1.20;;
9128;SDS011;4599;50.906;6.786;2023-03-11T16:45:47;2.77;;;1.30;;
9128;SDS011;4599;50.906;6.786;2023-03-11T16:49:49;2.63;;;1.17;;
9128;SDS011;4599;50.906;6.786;2023-03-11T16:53:50;4.47;;;1.20;;
9128;SDS011;4599;50.906;6.786;2023-03-11T16:57:53;3.87;;;1.30;;
9128;SDS011;4599;50.906;6.786;2023-03-11T17:01:55;4.47;;;1.30;;
9128;SDS011;4599;50.906;6.786;2023-03-11T17:06:01;6.80;;;1.20;;
9128;SDS011;4599;50.906;6.786;2023-03-11T17:10:04;6.17;;;1.53;;
9128;SDS011;4599;50.906;6.786;2023-03-11T17:14:08;2.17;;;1.27;;
9128;SDS011;4599;50.906;6.786;2023-03-11T17:18:17;2.23;;;1.10;;
9128;SDS011;4599;50.906;6.786;2023-03-11T17:22:18;6.57;;;1.13;;
9128;SDS011;4599;50.906;6.786;2023-03-11T17:26:21;4.30;;;1.47;;
9128;SDS011;4599;50.906;6.786;2023-03-11T17:30:23;2.93;;;1.23;;
9128;SDS011;4599;50.906;6.786;2023-03-11T17:34:37;3.33;;;1.30;;
9128;SDS011;4599;50.906;6.786;2023-03-11T17:38:39;3.70;;;1.30;;
9128;SDS011;4599;50.906;6.786;2023-03-11T17:42:40;5.13;;;1.50;;
9128;SDS011;4599;50.906;6.786;2023-03-11T17:46:43;5.97;;;2.00;;
9128;SDS011;4599;50.906;6.786;2023-03-11T17:50:45;5.70;;;2.10;;
9128;SDS011;4599;50.906;6.786;2023-03-11T17:54:47;8.77;;;3.03;;
9128;SDS011;4599;50.906;6.786;2023-03-11T17:58:49;5.77;;;2.50;;
9128;SDS011;4599;50.906;6.786;2023-03-11T18:02:54;6.07;;;2.77;;
9128;SDS011;4599;50.906;6.786;2023-03-11T18:06:56;7.57;;;2.50;;
9128;SDS011;4599;50.906;6.786;2023-03-11T18:10:59;3.43;;;2.23;;
9128;SDS011;4599;50.906;6.786;2023-03-11T18:15:04;5.10;;;2.10;;
9128;SDS011;4599;50.906;6.786;2023-03-11T18:19:09;4.20;;;2.20;;
9128;SDS011;4599;50.906;6.786;2023-03-11T18:23:11;4.80;;;2.50;;
9128;SDS011;4599;50.906;6.786;2023-03-11T18:27:13;9.40;;;4.13;;
9128;SDS011;4599;50.906;6.786;2023-03-11T18:31:15;17.63;;;7.00;;
9128;SDS011;4599;50.906;6.786;2023-03-11T18:35:19;19.70;;;9.23;;
9128;SDS011;4599;50.906;6.786;2023-03-11T18:39:21;17.40;;;8.70;;
9128;SDS011;4599;50.906;6.786;2023-03-11T18:43:23;18.50;;;9.50;;
9128;SDS011;4599;50.906;6.786;2023-03-11T18:47:24;23.63;;;11.17;;
9128;SDS011;4599;50.906;6.786;2023-03-11T18:51:28;21.83;;;12.10;;
9128;SDS011;4599;50.906;6.786;2023-03-11T18:55:32;21.50;;;10.67;;
9128;SDS011;4599;50.906;6.786;2023-03-11T18:59:34;17.50;;;9.20;;
9128;SDS011;4599;50.906;6.786;2023-03-11T19:03:36;26.17;;;8.90;;
9128;SDS011;4599;50.906;6.786;2023-03-11T19:07:41;15.23;;;7.93;;
9128;SDS011;4599;50.906;6.786;2023-03-11T19:11:42;12.90;;;6.03;;
9128;SDS011;4599;50.906;6.786;2023-03-11T19:15:44;11.23;;;6.57;;
9128;SDS011;4599;50.906;6.786;2023-03-11T19:19:46;14.43;;;6.50;;
9128;SDS011;4599;50.906;6.786;2023-03-11T19:23:49;9.73;;;4.53;;
9128;SDS011;4599;50.906;6.786;2023-03-11T19:27:51;9.20;;;3.87;;
9128;SDS011;4599;50.906;6.786;2023-03-11T19:31:52;10.10;;;6.00;;
9128;SDS011;4599;50.906;6.786;2023-03-11T19:35:56;7.30;;;4.43;;
9128;SDS011;4599;50.906;6.786;2023-03-11T19:40:01;7.63;;;3.77;;
9128;SDS011;4599;50.906;6.786;2023-03-11T19:44:02;7.40;;;2.87;;
9128;SDS011;4599;50.906;6.786;2023-03-11T19:48:04;3.13;;;2.20;;
9128;SDS011;4599;50.906;6.786;2023-03-11T19:52:06;4.73;;;2.40;;
9128;SDS011;4599;50.906;6.786;2023-03-11T19:56:09;7.43;;;1.90;;
9128;SDS011;4599;50.906;6.786;2023-03-11T20:00:11;5.27;;;2.03;;
9128;SDS011;4599;50.906;6.786;2023-03-11T20:04:13;9.17;;;1.80;;
9128;SDS011;4599;50.906;6.786;2023-03-11T20:08:16;4.93;;;1.67;;
9128;SDS011;4599;50.906;6.786;2023-03-11T20:12:20;8.40;;;1.40;;
9128;SDS011;4599;50.906;6.786;2023-03-11T20:16:22;4.90;;;1.50;;
9128;SDS011;4599;50.906;6.786;2023-03-11T20:20:24;3.13;;;1.27;;
9128;SDS011;4599;50.906;6.786;2023-03-11T20:24:25;3.53;;;1.10;;
9128;SDS011;4599;50.906;6.786;2023-03-11T20:28:28;3.17;;;1.10;;
9128;SDS011;4599;50.906;6.786;2023-03-11T20:32:30;2.17;;;1.00;;
9128;SDS011;4599;50.906;6.786;2023-03-11T20:36:32;5.93;;;1.10;;
9128;SDS011;4599;50.906;6.786;2023-03-11T20:40:35;5.33;;;1.20;;
9128;SDS011;4599;50.906;6.786;2023-03-11T20:44:40;5.93;;;1.20;;
9128;SDS011;4599;50.906;6.786;2023-03-11T20:48:42;1.47;;;0.90;;
9128;SDS011;4599;50.906;6.786;2023-03-11T20:52:44;3.43;;;1.00;;
9128;SDS011;4599;50.906;6.786;2023-03-11T20:56:46;4.13;;;1.10;;
9128;SDS011;4599;50.906;6.786;2023-03-11T21:00:50;7.53;;;1.10;;
9128;SDS011;4599;50.906;6.786;2023-03-11T21:04:51;7.30;;;1.50;;
9128;SDS011;4599;50.906;6.786;2023-03-11T21:08:53;4.07;;;1.30;;
9128;SDS011;4599;50.906;6.786;2023-03-11T21:12:56;6.77;;;1.33;;
9128;SDS011;4599;50.906;6.786;2023-03-11T21:17:00;2.70;;;1.20;;
9128;SDS011;4599;50.906;6.786;2023-03-11T21:21:02;2.23;;;1.57;;
9128;SDS011;4599;50.906;6.786;2023-03-11T21:25:05;6.23;;;1.73;;
9128;SDS011;4599;50.906;6.786;2023-03-11T21:29:08;3.37;;;1.40;;
9128;SDS011;4599;50.906;6.786;2023-03-11T21:33:11;6.17;;;1.57;;
9128;SDS011;4599;50.906;6.786;2023-03-11T21:37:13;3.47;;;1.80;;
9128;SDS011;4599;50.906;6.786;2023-03-11T21:41:17;5.73;;;1.87;;
9128;SDS011;4599;50.906;6.786;2023-03-11T21:45:21;6.87;;;2.23;;
9128;SDS011;4599;50.906;6.786;2023-03-11T21:49:24;6.73;;;2.53;;
9128;SDS011;4599;50.906;6.786;2023-03-11T21:53:28;4.40;;;1.80;;
9128;SDS011;4599;50.906;6.786;2023-03-11T21:57:30;5.40;;;2.03;;
9128;SDS011;4599;50.906;6.786;2023-03-11T22:01:33;5.53;;;2.10;;
9128;SDS011;4599;50.906;6.786;2023-03-11T22:05:36;6.80;;;2.40;;
9128;SDS011;4599;50.906;6.786;2023-03-11T22:09:38;4.30;;;2.33;;
9128;SDS011;4599;50.906;6.786;2023-03-11T22:13:40;10.37;;;3.17;;
9128;SDS011;4599;50.906;6.786;2023-03-11T22:17:42;9.17;;;2.73;;
9128;SDS011;4599;50.906;6.786;2023-03-11T22:21:45;4.97;;;2.30;;
9128;SDS011;4599;50.906;6.786;2023-03-11T22:25:48;3.47;;;2.43;;
9128;SDS011;4599;50.906;6.786;2023-03-11T22:29:50;10.37;;;2.47;;
9128;SDS011;4599;50.906;6.786;2023-03-11T22:33:52;4.37;;;1.80;;
9128;SDS011;4599;50.906;6.786;2023-03-11T22:37:55;5.23;;;2.23;;
9128;SDS011;4599;50.906;6.786;2023-03-11T22:41:57;7.37;;;2.30;;
9128;SDS011;4599;50.906;6.786;2023-03-11T22:45:59;2.80;;;1.80;;
9128;SDS011;4599;50.906;6.786;2023-03-11T22:50:02;8.37;;;2.53;;
9128;SDS011;4599;50.906;6.786;2023-03-11T22:54:06;8.50;;;3.57;;
9128;SDS011;4599;50.906;6.786;2023-03-11T22:58:07;10.73;;;4.50;;
9128;SDS011;4599;50.906;6.786;2023-03-11T23:02:09;7.30;;;3.37;;
9128;SDS011;4599;50.906;6.786;2023-03-11T23:06:13;10.33;;;4.23;;
9128;SDS011;4599;50.906;6.786;2023-03-11T23:10:17;8.00;;;4.77;;
9128;SDS011;4599;50.906;6.786;2023-03-11T23:14:21;7.67;;;4.70;;
9128;SDS011;4599;50.906;6.786;2023-03-11T23:18:42;7.13;;;4.20;;
9128;SDS011;4599;50.906;6.786;2023-03-11T23:22:45;7.80;;;4.50;;
9128;SDS011;4599;50.906;6.786;2023-03-11T23:26:48;8.63;;;4.03;;
9128;SDS011;4599;50.906;6.786;2023-03-11T23:30:50;8.37;;;3.77;;
9128;SDS011;4599;50.906;6.786;2023-03-11T23:34:51;7.87;;;3.90;;
9128;SDS011;4599;50.906;6.786;2023-03-11T23:38:53;8.93;;;3.80;;
9128;SDS011;4599;50.906;6.786;2023-03-11T23:42:56;5.43;;;3.13;;
9128;SDS011;4599;50.906;6.786;2023-03-11T23:46:58;9.80;;;3.30;;
9128;SDS011;4599;50.906;6.786;2023-03-11T23:50:59;7.60;;;3.50;;
9128;SDS011;4599;50.906;6.786;2023-03-11T23:55:01;6.20;;;3.53;;
9128;SDS011;4599;50.906;6.786;2023-03-11T23:59:04;10.13;;;3.50;;
